sensor_id;sensor_type;location;lat;lon;timestamp;P1;durP1;ratioP1;P2;durP2;ratioP2
17947;SDS011;9099;47.958;11.366;2023-05-29T00:01:12;3.85;;;3.38;;
17947;SDS011;9099;47.958;11.366;2023-05-29T00:03:40;3.85;;;3.42;;
17947;SDS011;9099;47.958;11.366;2023-05-29T00:06:07;3.60;;;3.30;;
17947;SDS011;9099;47.958;11.366;2023-05-29T00:08:34;3.60;;;3.30;;
17947;SDS011;9099;47.958;11.366;2023-05-29T00:11:01;3.72;;;3.25;;
17947;SDS011;9099;47.958;11.366;2023-05-29T00:13:28;3.83;;;3.53;;
17947;SDS011;9099;47.958;11.366;2023-05-29T00:15:54;3.75;;;3.17;;
17947;SDS011;9099;47.958;11.366;2023-05-29T00:18:21;3.88;;;3.47;;
17947;SDS011;9099;47.958;11.366;2023-05-29T00:20:50;3.58;;;3.25;;
17947;SDS011;9099;47.958;11.366;2023-05-29T00:23:17;3.65;;;3.35;;
17947;SDS011;9099;47.958;11.366;2023-05-29T00:25:44;3.97;;;3.67;;
17947;SDS011;9099;47.958;11.366;2023-05-29T00:28:11;3.10;;;2.70;;
17947;SDS011;9099;47.958;11.366;2023-05-29T00:30:38;2.97;;;2.60;;
17947;SDS011;9099;47.958;11.366;2023-05-29T00:33:05;4.03;;;3.55;;
17947;SDS011;9099;47.958;11.366;2023-05-29T00:35:33;3.20;;;2.83;;
17947;SDS011;9099;47.958;11.366;2023-05-29T00:38:01;3.85;;;2.97;;
17947;SDS011;9099;47.958;11.366;2023-05-29T00:40:28;3.35;;;3.15;;
17947;SDS011;9099;47.958;11.366;2023-05-29T00:42:55;3.63;;;3.30;;
17947;SDS011;9099;47.958;11.366;2023-05-29T00:45:22;3.60;;;3.30;;
17947;SDS011;9099;47.958;11.366;2023-05-29T00:47:49;3.92;;;3.63;;
17947;SDS011;9099;47.958;11.366;2023-05-29T00:50:15;4.05;;;3.75;;
17947;SDS011;9099;47.958;11.366;2023-05-29T00:52:43;4.05;;;3.25;;
17947;SDS011;9099;47.958;11.366;2023-05-29T00:55:12;3.40;;;3.10;;
17947;SDS011;9099;47.958;11.366;2023-05-29T00:57:40;3.70;;;3.30;;
17947;SDS011;9099;47.958;11.366;2023-05-29T01:00:08;3.85;;;3.47;;
17947;SDS011;9099;47.958;11.366;2023-05-29T01:02:39;4.55;;;3.42;;
17947;SDS011;9099;47.958;11.366;2023-05-29T01:05:09;3.70;;;3.15;;
17947;SDS011;9099;47.958;11.366;2023-05-29T01:07:36;3.88;;;3.47;;
17947;SDS011;9099;47.958;11.366;2023-05-29T01:10:03;3.30;;;3.00;;
17947;SDS011;9099;47.958;11.366;2023-05-29T01:12:36;3.67;;;3.20;;
17947;SDS011;9099;47.958;11.366;2023-05-29T01:15:21;4.10;;;3.25;;
17947;SDS011;9099;47.958;11.366;2023-05-29T01:17:57;3.10;;;2.85;;
17947;SDS011;9099;47.958;11.366;2023-05-29T01:20:35;3.58;;;2.75;;
17947;SDS011;9099;47.958;11.366;2023-05-29T01:23:12;3.38;;;2.75;;
17947;SDS011;9099;47.958;11.366;2023-05-29T01:25:58;3.88;;;3.45;;
17947;SDS011;9099;47.958;11.366;2023-05-29T01:28:37;4.00;;;2.97;;
17947;SDS011;9099;47.958;11.366;2023-05-29T01:31:07;3.95;;;3.55;;
17947;SDS011;9099;47.958;11.366;2023-05-29T01:33:38;3.33;;;3.03;;
17947;SDS011;9099;47.958;11.366;2023-05-29T01:36:06;3.40;;;3.10;;
17947;SDS011;9099;47.958;11.366;2023-05-29T01:38:34;3.65;;;2.90;;
17947;SDS011;9099;47.958;11.366;2023-05-29T01:41:01;3.55;;;3.25;;
17947;SDS011;9099;47.958;11.366;2023-05-29T01:43:29;4.50;;;3.10;;
17947;SDS011;9099;47.958;11.366;2023-05-29T01:45:58;4.00;;;3.05;;
17947;SDS011;9099;47.958;11.366;2023-05-29T01:48:26;3.33;;;3.03;;
17947;SDS011;9099;47.958;11.366;2023-05-29T01:50:54;3.38;;;3.08;;
17947;SDS011;9099;47.958;11.366;2023-05-29T01:53:21;3.38;;;3.08;;
17947;SDS011;9099;47.958;11.366;2023-05-29T01:55:48;4.10;;;3.28;;
17947;SDS011;9099;47.958;11.366;2023-05-29T01:58:16;3.70;;;3.35;;
17947;SDS011;9099;47.958;11.366;2023-05-29T02:00:44;3.75;;;3.28;;
17947;SDS011;9099;47.958;11.366;2023-05-29T02:03:13;4.15;;;2.92;;
17947;SDS011;9099;47.958;11.366;2023-05-29T02:05:40;5.05;;;3.25;;
17947;SDS011;9099;47.958;11.366;2023-05-29T02:08:06;3.30;;;2.83;;
17947;SDS011;9099;47.958;11.366;2023-05-29T02:10:33;4.18;;;3.00;;
17947;SDS011;9099;47.958;11.366;2023-05-29T02:13:00;3.72;;;3.20;;
17947;SDS011;9099;47.958;11.366;2023-05-29T02:15:27;4.03;;;3.10;;
17947;SDS011;9099;47.958;11.366;2023-05-29T02:17:54;3.20;;;2.80;;
17947;SDS011;9099;47.958;11.366;2023-05-29T02:20:23;4.30;;;3.28;;
17947;SDS011;9099;47.958;11.366;2023-05-29T02:22:50;2.92;;;2.60;;
17947;SDS011;9099;47.958;11.366;2023-05-29T02:25:17;3.65;;;2.85;;
17947;SDS011;9099;47.958;11.366;2023-05-29T02:27:44;3.03;;;2.72;;
17947;SDS011;9099;47.958;11.366;2023-05-29T02:30:11;5.05;;;3.30;;
17947;SDS011;9099;47.958;11.366;2023-05-29T02:32:38;3.78;;;3.30;;
17947;SDS011;9099;47.958;11.366;2023-05-29T02:35:06;3.63;;;3.33;;
17947;SDS011;9099;47.958;11.366;2023-05-29T02:37:34;3.38;;;3.08;;
17947;SDS011;9099;47.958;11.366;2023-05-29T02:40:01;3.70;;;3.13;;
17947;SDS011;9099;47.958;11.366;2023-05-29T02:42:28;4.07;;;3.30;;
17947;SDS011;9099;47.958;11.366;2023-05-29T02:44:55;3.60;;;3.15;;
17947;SDS011;9099;47.958;11.366;2023-05-29T02:47:21;4.47;;;3.70;;
17947;SDS011;9099;47.958;11.366;2023-05-29T02:49:48;3.45;;;3.10;;
17947;SDS011;9099;47.958;11.366;2023-05-29T02:52:15;3.22;;;2.92;;
17947;SDS011;9099;47.958;11.366;2023-05-29T02:54:43;4.22;;;3.33;;
17947;SDS011;9099;47.958;11.366;2023-05-29T02:57:10;3.20;;;2.95;;
17947;SDS011;9099;47.958;11.366;2023-05-29T02:59:37;3.45;;;3.15;;
17947;SDS011;9099;47.958;11.366;2023-05-29T03:02:04;3.70;;;3.30;;
17947;SDS011;9099;47.958;11.366;2023-05-29T03:04:31;3.85;;;3.35;;
17947;SDS011;9099;47.958;11.366;2023-05-29T03:06:58;3.38;;;3.10;;
17947;SDS011;9099;47.958;11.366;2023-05-29T03:09:25;3.20;;;2.90;;
17947;SDS011;9099;47.958;11.366;2023-05-29T03:11:53;3.42;;;3.13;;
17947;SDS011;9099;47.958;11.366;2023-05-29T03:14:20;4.05;;;3.65;;
17947;SDS011;9099;47.958;11.366;2023-05-29T03:16:47;5.10;;;3.45;;
17947;SDS011;9099;47.958;11.366;2023-05-29T03:19:14;3.63;;;3.13;;
17947;SDS011;9099;47.958;11.366;2023-05-29T03:21:41;3.55;;;3.22;;
17947;SDS011;9099;47.958;11.366;2023-05-29T03:24:08;3.83;;;3.15;;
17947;SDS011;9099;47.958;11.366;2023-05-29T03:26:36;4.00;;;3.22;;
17947;SDS011;9099;47.958;11.366;2023-05-29T03:29:04;3.63;;;3.28;;
17947;SDS011;9099;47.958;11.366;2023-05-29T03:31:32;4.75;;;3.40;;
17947;SDS011;9099;47.958;11.366;2023-05-29T03:33:59;3.75;;;3.28;;
17947;SDS011;9099;47.958;11.366;2023-05-29T03:36:26;3.63;;;3.13;;
17947;SDS011;9099;47.958;11.366;2023-05-29T03:38:53;3.95;;;3.20;;
17947;SDS011;9099;47.958;11.366;2023-05-29T03:41:20;3.53;;;3.22;;
17947;SDS011;9099;47.958;11.366;2023-05-29T03:43:47;3.50;;;3.20;;
17947;SDS011;9099;47.958;11.366;2023-05-29T03:46:15;4.20;;;3.75;;
17947;SDS011;9099;47.958;11.366;2023-05-29T03:48:42;4.88;;;3.20;;
17947;SDS011;9099;47.958;11.366;2023-05-29T03:51:08;3.65;;;3.15;;
17947;SDS011;9099;47.958;11.366;2023-05-29T03:53:35;4.53;;;3.63;;
17947;SDS011;9099;47.958;11.366;2023-05-29T03:56:03;3.40;;;3.10;;
17947;SDS011;9099;47.958;11.366;2023-05-29T03:58:30;3.85;;;3.17;;
17947;SDS011;9099;47.958;11.366;2023-05-29T04:00:57;4.60;;;3.22;;
17947;SDS011;9099;47.958;11.366;2023-05-29T04:03:25;3.40;;;3.10;;
17947;SDS011;9099;47.958;11.366;2023-05-29T04:05:54;3.30;;;2.90;;
17947;SDS011;9099;47.958;11.366;2023-05-29T04:08:21;3.80;;;3.40;;
17947;SDS011;9099;47.958;11.366;2023-05-29T04:10:48;3.33;;;3.00;;
17947;SDS011;9099;47.958;11.366;2023-05-29T04:13:18;3.40;;;3.00;;
17947;SDS011;9099;47.958;11.366;2023-05-29T04:15:45;3.25;;;2.97;;
17947;SDS011;9099;47.958;11.366;2023-05-29T04:18:12;3.28;;;2.97;;
17947;SDS011;9099;47.958;11.366;2023-05-29T04:20:41;3.38;;;3.08;;
17947;SDS011;9099;47.958;11.366;2023-05-29T04:23:10;4.07;;;3.13;;
17947;SDS011;9099;47.958;11.366;2023-05-29T04:25:37;4.32;;;3.58;;
17947;SDS011;9099;47.958;11.366;2023-05-29T04:28:04;3.47;;;3.17;;
17947;SDS011;9099;47.958;11.366;2023-05-29T04:30:31;3.50;;;3.28;;
17947;SDS011;9099;47.958;11.366;2023-05-29T04:32:58;3.92;;;3.42;;
17947;SDS011;9099;47.958;11.366;2023-05-29T04:35:25;3.97;;;3.13;;
17947;SDS011;9099;47.958;11.366;2023-05-29T04:37:54;3.65;;;3.05;;
17947;SDS011;9099;47.958;11.366;2023-05-29T04:40:21;3.63;;;3.33;;
17947;SDS011;9099;47.958;11.366;2023-05-29T04:42:48;3.17;;;2.97;;
17947;SDS011;9099;47.958;11.366;2023-05-29T04:45:15;2.97;;;2.72;;
17947;SDS011;9099;47.958;11.366;2023-05-29T04:47:45;3.90;;;2.85;;
17947;SDS011;9099;47.958;11.366;2023-05-29T04:50:12;5.40;;;2.80;;
17947;SDS011;9099;47.958;11.366;2023-05-29T04:52:39;3.35;;;3.05;;
17947;SDS011;9099;47.958;11.366;2023-05-29T04:55:08;3.20;;;2.90;;
17947;SDS011;9099;47.958;11.366;2023-05-29T04:57:35;3.50;;;2.95;;
17947;SDS011;9099;47.958;11.366;2023-05-29T05:00:02;4.18;;;3.00;;
17947;SDS011;9099;47.958;11.366;2023-05-29T05:02:32;3.38;;;3.08;;
17947;SDS011;9099;47.958;11.366;2023-05-29T05:04:59;3.53;;;2.92;;
17947;SDS011;9099;47.958;11.366;2023-05-29T05:07:25;3.25;;;2.95;;
17947;SDS011;9099;47.958;11.366;2023-05-29T05:09:52;3.53;;;3.10;;
17947;SDS011;9099;47.958;11.366;2023-05-29T05:12:21;3.58;;;3.28;;
17947;SDS011;9099;47.958;11.366;2023-05-29T05:14:48;3.78;;;3.35;;
17947;SDS011;9099;47.958;11.366;2023-05-29T05:17:14;3.17;;;2.85;;
17947;SDS011;9099;47.958;11.366;2023-05-29T05:19:42;3.55;;;3.15;;
17947;SDS011;9099;47.958;11.366;2023-05-29T05:22:08;3.25;;;2.95;;
17947;SDS011;9099;47.958;11.366;2023-05-29T05:24:35;3.35;;;3.05;;
17947;SDS011;9099;47.958;11.366;2023-05-29T05:27:03;4.15;;;3.40;;
17947;SDS011;9099;47.958;11.366;2023-05-29T05:29:32;4.03;;;3.33;;
17947;SDS011;9099;47.958;11.366;2023-05-29T05:31:58;3.03;;;2.83;;
17947;SDS011;9099;47.958;11.366;2023-05-29T05:34:25;4.43;;;3.08;;
17947;SDS011;9099;47.958;11.366;2023-05-29T05:36:52;3.63;;;3.33;;
17947;SDS011;9099;47.958;11.366;2023-05-29T05:39:19;3.22;;;2.92;;
17947;SDS011;9099;47.958;11.366;2023-05-29T05:41:46;3.97;;;3.67;;
17947;SDS011;9099;47.958;11.366;2023-05-29T05:44:13;4.00;;;3.60;;
17947;SDS011;9099;47.958;11.366;2023-05-29T05:46:41;3.63;;;3.28;;
17947;SDS011;9099;47.958;11.366;2023-05-29T05:49:08;4.53;;;3.45;;
17947;SDS011;9099;47.958;11.366;2023-05-29T05:51:34;4.40;;;3.55;;
17947;SDS011;9099;47.958;11.366;2023-05-29T05:54:01;3.80;;;3.50;;
17947;SDS011;9099;47.958;11.366;2023-05-29T05:56:28;3.92;;;3.40;;
17947;SDS011;9099;47.958;11.366;2023-05-29T05:58:55;3.90;;;3.60;;
17947;SDS011;9099;47.958;11.366;2023-05-29T06:01:22;3.90;;;3.60;;
17947;SDS011;9099;47.958;11.366;2023-05-29T06:03:50;3.40;;;3.03;;
17947;SDS011;9099;47.958;11.366;2023-05-29T06:06:17;6.80;;;3.40;;
17947;SDS011;9099;47.958;11.366;2023-05-29T06:08:44;4.97;;;3.60;;
17947;SDS011;9099;47.958;11.366;2023-05-29T06:11:12;3.78;;;3.38;;
17947;SDS011;9099;47.958;11.366;2023-05-29T06:13:40;3.78;;;3.47;;
17947;SDS011;9099;47.958;11.366;2023-05-29T06:16:06;4.40;;;3.70;;
17947;SDS011;9099;47.958;11.366;2023-05-29T06:18:33;3.90;;;3.42;;
17947;SDS011;9099;47.958;11.366;2023-05-29T06:21:02;3.70;;;3.40;;
17947;SDS011;9099;47.958;11.366;2023-05-29T06:23:29;4.07;;;3.50;;
17947;SDS011;9099;47.958;11.366;2023-05-29T06:25:56;5.28;;;3.50;;
17947;SDS011;9099;47.958;11.366;2023-05-29T06:28:23;4.32;;;3.38;;
17947;SDS011;9099;47.958;11.366;2023-05-29T06:30:50;3.83;;;3.53;;
17947;SDS011;9099;47.958;11.366;2023-05-29T06:33:17;3.80;;;3.30;;
17947;SDS011;9099;47.958;11.366;2023-05-29T06:35:45;3.92;;;3.53;;
17947;SDS011;9099;47.958;11.366;2023-05-29T06:38:14;3.83;;;3.38;;
17947;SDS011;9099;47.958;11.366;2023-05-29T06:40:40;3.42;;;3.15;;
17947;SDS011;9099;47.958;11.366;2023-05-29T06:43:07;3.58;;;3.28;;
17947;SDS011;9099;47.958;11.366;2023-05-29T06:45:35;4.75;;;3.17;;
17947;SDS011;9099;47.958;11.366;2023-05-29T06:48:02;3.30;;;3.00;;
17947;SDS011;9099;47.958;11.366;2023-05-29T06:50:29;3.63;;;3.33;;
17947;SDS011;9099;47.958;11.366;2023-05-29T06:52:56;6.20;;;3.00;;
17947;SDS011;9099;47.958;11.366;2023-05-29T06:55:24;3.45;;;3.13;;
17947;SDS011;9099;47.958;11.366;2023-05-29T06:57:51;3.70;;;3.00;;
17947;SDS011;9099;47.958;11.366;2023-05-29T07:00:18;4.00;;;3.50;;
17947;SDS011;9099;47.958;11.366;2023-05-29T07:02:46;3.63;;;3.33;;
17947;SDS011;9099;47.958;11.366;2023-05-29T07:05:12;3.53;;;3.22;;
17947;SDS011;9099;47.958;11.366;2023-05-29T07:07:39;3.33;;;3.13;;
17947;SDS011;9099;47.958;11.366;2023-05-29T07:10:06;4.97;;;3.40;;
17947;SDS011;9099;47.958;11.366;2023-05-29T07:12:35;4.28;;;3.08;;
17947;SDS011;9099;47.958;11.366;2023-05-29T07:15:02;3.97;;;3.20;;
17947;SDS011;9099;47.958;11.366;2023-05-29T07:17:29;3.50;;;2.72;;
17947;SDS011;9099;47.958;11.366;2023-05-29T07:19:56;3.60;;;3.30;;
17947;SDS011;9099;47.958;11.366;2023-05-29T07:22:22;3.65;;;3.35;;
17947;SDS011;9099;47.958;11.366;2023-05-29T07:24:49;3.83;;;3.53;;
17947;SDS011;9099;47.958;11.366;2023-05-29T07:27:16;3.70;;;3.40;;
17947;SDS011;9099;47.958;11.366;2023-05-29T07:29:44;4.07;;;3.38;;
17947;SDS011;9099;47.958;11.366;2023-05-29T07:32:11;5.78;;;3.60;;
17947;SDS011;9099;47.958;11.366;2023-05-29T07:34:38;3.55;;;3.25;;
17947;SDS011;9099;47.958;11.366;2023-05-29T07:37:05;4.13;;;3.75;;
17947;SDS011;9099;47.958;11.366;2023-05-29T07:39:34;5.35;;;3.83;;
17947;SDS011;9099;47.958;11.366;2023-05-29T07:42:01;3.42;;;3.15;;
17947;SDS011;9099;47.958;11.366;2023-05-29T07:44:29;5.32;;;3.97;;
17947;SDS011;9099;47.958;11.366;2023-05-29T07:46:57;3.95;;;3.60;;
17947;SDS011;9099;47.958;11.366;2023-05-29T07:49:24;3.78;;;3.33;;
17947;SDS011;9099;47.958;11.366;2023-05-29T07:51:51;4.57;;;3.90;;
17947;SDS011;9099;47.958;11.366;2023-05-29T07:54:18;4.70;;;3.60;;
17947;SDS011;9099;47.958;11.366;2023-05-29T07:56:46;4.30;;;3.90;;
17947;SDS011;9099;47.958;11.366;2023-05-29T07:59:13;4.22;;;3.60;;
17947;SDS011;9099;47.958;11.366;2023-05-29T08:01:40;3.58;;;3.17;;
17947;SDS011;9099;47.958;11.366;2023-05-29T08:04:10;4.97;;;3.60;;
17947;SDS011;9099;47.958;11.366;2023-05-29T08:06:37;3.80;;;3.30;;
17947;SDS011;9099;47.958;11.366;2023-05-29T08:09:07;3.78;;;3.47;;
17947;SDS011;9099;47.958;11.366;2023-05-29T08:11:35;3.95;;;3.65;;
17947;SDS011;9099;47.958;11.366;2023-05-29T08:14:02;4.80;;;3.85;;
17947;SDS011;9099;47.958;11.366;2023-05-29T08:16:29;4.30;;;3.90;;
17947;SDS011;9099;47.958;11.366;2023-05-29T08:18:55;5.20;;;3.47;;
17947;SDS011;9099;47.958;11.366;2023-05-29T08:21:24;4.45;;;3.83;;
17947;SDS011;9099;47.958;11.366;2023-05-29T08:23:51;3.85;;;3.55;;
17947;SDS011;9099;47.958;11.366;2023-05-29T08:26:18;4.50;;;4.20;;
17947;SDS011;9099;47.958;11.366;2023-05-29T08:28:45;4.13;;;3.83;;
17947;SDS011;9099;47.958;11.366;2023-05-29T08:31:12;4.03;;;3.70;;
17947;SDS011;9099;47.958;11.366;2023-05-29T08:33:39;4.05;;;3.50;;
17947;SDS011;9099;47.958;11.366;2023-05-29T08:36:06;4.85;;;4.20;;
17947;SDS011;9099;47.958;11.366;2023-05-29T08:38:35;4.05;;;3.65;;
17947;SDS011;9099;47.958;11.366;2023-05-29T08:41:02;4.63;;;4.22;;
17947;SDS011;9099;47.958;11.366;2023-05-29T08:43:29;3.92;;;3.63;;
17947;SDS011;9099;47.958;11.366;2023-05-29T08:45:58;4.45;;;3.80;;
17947;SDS011;9099;47.958;11.366;2023-05-29T08:48:27;4.53;;;4.05;;
17947;SDS011;9099;47.958;11.366;2023-05-29T08:50:55;4.28;;;3.65;;
17947;SDS011;9099;47.958;11.366;2023-05-29T08:53:22;4.10;;;3.80;;
17947;SDS011;9099;47.958;11.366;2023-05-29T08:55:52;3.85;;;3.53;;
17947;SDS011;9099;47.958;11.366;2023-05-29T08:58:20;3.78;;;3.47;;
17947;SDS011;9099;47.958;11.366;2023-05-29T09:00:48;4.18;;;3.78;;
17947;SDS011;9099;47.958;11.366;2023-05-29T09:03:15;4.20;;;3.80;;
17947;SDS011;9099;47.958;11.366;2023-05-29T09:05:45;4.40;;;3.90;;
17947;SDS011;9099;47.958;11.366;2023-05-29T09:08:12;4.35;;;3.95;;
17947;SDS011;9099;47.958;11.366;2023-05-29T09:10:40;5.25;;;3.80;;
17947;SDS011;9099;47.958;11.366;2023-05-29T09:13:09;4.30;;;3.90;;
17947;SDS011;9099;47.958;11.366;2023-05-29T09:15:38;4.43;;;4.00;;
17947;SDS011;9099;47.958;11.366;2023-05-29T09:18:08;4.32;;;3.92;;
17947;SDS011;9099;47.958;11.366;2023-05-29T09:20:35;4.65;;;4.10;;
17947;SDS011;9099;47.958;11.366;2023-05-29T09:23:03;3.92;;;3.53;;
17947;SDS011;9099;47.958;11.366;2023-05-29T09:25:31;4.72;;;4.13;;
17947;SDS011;9099;47.958;11.366;2023-05-29T09:27:59;5.85;;;4.40;;
17947;SDS011;9099;47.958;11.366;2023-05-29T09:30:36;4.72;;;3.67;;
17947;SDS011;9099;47.958;11.366;2023-05-29T09:33:04;4.00;;;3.70;;
17947;SDS011;9099;47.958;11.366;2023-05-29T09:35:32;4.32;;;3.92;;
17947;SDS011;9099;47.958;11.366;2023-05-29T09:38:00;4.38;;;4.07;;
17947;SDS011;9099;47.958;11.366;2023-05-29T09:40:29;3.92;;;3.65;;
17947;SDS011;9099;47.958;11.366;2023-05-29T09:43:01;4.70;;;4.30;;
17947;SDS011;9099;47.958;11.366;2023-05-29T09:45:32;4.63;;;4.28;;
17947;SDS011;9099;47.958;11.366;2023-05-29T09:48:04;4.53;;;4.20;;
17947;SDS011;9099;47.958;11.366;2023-05-29T09:50:33;4.82;;;4.05;;
17947;SDS011;9099;47.958;11.366;2023-05-29T09:53:00;4.50;;;4.10;;
17947;SDS011;9099;47.958;11.366;2023-05-29T09:55:28;5.70;;;4.85;;
17947;SDS011;9099;47.958;11.366;2023-05-29T09:57:57;4.55;;;4.15;;
17947;SDS011;9099;47.958;11.366;2023-05-29T10:00:25;4.47;;;4.13;;
17947;SDS011;9099;47.958;11.366;2023-05-29T10:02:53;4.55;;;4.25;;
17947;SDS011;9099;47.958;11.366;2023-05-29T10:05:20;4.63;;;4.22;;
17947;SDS011;9099;47.958;11.366;2023-05-29T10:07:47;4.50;;;4.20;;
17947;SDS011;9099;47.958;11.366;2023-05-29T10:10:18;5.68;;;4.68;;
17947;SDS011;9099;47.958;11.366;2023-05-29T10:12:47;4.53;;;4.20;;
17947;SDS011;9099;47.958;11.366;2023-05-29T10:15:16;4.70;;;4.22;;
17947;SDS011;9099;47.958;11.366;2023-05-29T10:17:49;5.18;;;4.70;;
17947;SDS011;9099;47.958;11.366;2023-05-29T10:20:19;4.50;;;4.13;;
17947;SDS011;9099;47.958;11.366;2023-05-29T10:22:47;4.82;;;4.43;;
17947;SDS011;9099;47.958;11.366;2023-05-29T10:25:17;8.38;;;4.55;;
17947;SDS011;9099;47.958;11.366;2023-05-29T10:27:46;4.90;;;4.50;;
17947;SDS011;9099;47.958;11.366;2023-05-29T10:30:15;5.20;;;4.70;;
17947;SDS011;9099;47.958;11.366;2023-05-29T10:35:51;4.55;;;4.25;;
17947;SDS011;9099;47.958;11.366;2023-05-29T10:38:21;4.82;;;4.43;;
17947;SDS011;9099;47.958;11.366;2023-05-29T10:40:50;4.88;;;4.47;;
17947;SDS011;9099;47.958;11.366;2023-05-29T10:43:32;4.50;;;4.10;;
17947;SDS011;9099;47.958;11.366;2023-05-29T10:46:00;5.25;;;4.75;;
17947;SDS011;9099;47.958;11.366;2023-05-29T10:48:35;4.50;;;4.10;;
17947;SDS011;9099;47.958;11.366;2023-05-29T10:51:08;4.68;;;4.38;;
17947;SDS011;9099;47.958;11.366;2023-05-29T10:53:50;4.35;;;4.05;;
17947;SDS011;9099;47.958;11.366;2023-05-29T10:56:20;4.40;;;4.00;;
17947;SDS011;9099;47.958;11.366;2023-05-29T10:58:52;4.70;;;4.40;;
17947;SDS011;9099;47.958;11.366;2023-05-29T11:01:21;4.78;;;4.38;;
17947;SDS011;9099;47.958;11.366;2023-05-29T11:03:49;4.68;;;4.28;;
17947;SDS011;9099;47.958;11.366;2023-05-29T11:06:19;4.22;;;3.92;;
17947;SDS011;9099;47.958;11.366;2023-05-29T11:08:52;4.50;;;4.10;;
17947;SDS011;9099;47.958;11.366;2023-05-29T11:11:29;5.15;;;4.35;;
17947;SDS011;9099;47.958;11.366;2023-05-29T11:14:00;4.40;;;4.10;;
17947;SDS011;9099;47.958;11.366;2023-05-29T11:16:36;4.72;;;4.35;;
17947;SDS011;9099;47.958;11.366;2023-05-29T11:19:03;5.00;;;4.60;;
17947;SDS011;9099;47.958;11.366;2023-05-29T11:21:34;4.80;;;4.40;;
17947;SDS011;9099;47.958;11.366;2023-05-29T11:24:18;4.20;;;3.90;;
17947;SDS011;9099;47.958;11.366;2023-05-29T11:26:48;4.18;;;3.88;;
17947;SDS011;9099;47.958;11.366;2023-05-29T11:29:17;4.28;;;3.90;;
17947;SDS011;9099;47.958;11.366;2023-05-29T11:31:48;4.53;;;4.13;;
17947;SDS011;9099;47.958;11.366;2023-05-29T11:34:21;5.38;;;3.90;;
17947;SDS011;9099;47.958;11.366;2023-05-29T11:36:52;4.55;;;4.15;;
17947;SDS011;9099;47.958;11.366;2023-05-29T11:39:19;4.35;;;3.95;;
17947;SDS011;9099;47.958;11.366;2023-05-29T11:41:49;4.18;;;3.78;;
17947;SDS011;9099;47.958;11.366;2023-05-29T11:44:17;4.75;;;4.32;;
17947;SDS011;9099;47.958;11.366;2023-05-29T11:46:44;4.57;;;4.18;;
17947;SDS011;9099;47.958;11.366;2023-05-29T11:49:10;4.85;;;4.38;;
17947;SDS011;9099;47.958;11.366;2023-05-29T11:51:37;4.35;;;4.05;;
17947;SDS011;9099;47.958;11.366;2023-05-29T11:54:09;4.57;;;4.28;;
17947;SDS011;9099;47.958;11.366;2023-05-29T11:56:38;4.13;;;3.78;;
17947;SDS011;9099;47.958;11.366;2023-05-29T11:59:06;4.35;;;3.92;;
17947;SDS011;9099;47.958;11.366;2023-05-29T12:01:37;4.45;;;4.10;;
17947;SDS011;9099;47.958;11.366;2023-05-29T12:04:13;4.50;;;4.20;;
17947;SDS011;9099;47.958;11.366;2023-05-29T12:06:40;4.32;;;3.92;;
17947;SDS011;9099;47.958;11.366;2023-05-29T12:09:08;4.55;;;4.25;;
17947;SDS011;9099;47.958;11.366;2023-05-29T12:11:35;4.40;;;4.00;;
17947;SDS011;9099;47.958;11.366;2023-05-29T12:14:02;4.45;;;4.05;;
17947;SDS011;9099;47.958;11.366;2023-05-29T12:16:30;4.30;;;3.90;;
17947;SDS011;9099;47.958;11.366;2023-05-29T12:18:59;4.00;;;3.55;;
17947;SDS011;9099;47.958;11.366;2023-05-29T12:21:26;3.97;;;3.67;;
17947;SDS011;9099;47.958;11.366;2023-05-29T12:23:53;4.57;;;4.18;;
17947;SDS011;9099;47.958;11.366;2023-05-29T12:26:23;4.30;;;3.90;;
17947;SDS011;9099;47.958;11.366;2023-05-29T12:28:51;4.45;;;3.97;;
17947;SDS011;9099;47.958;11.366;2023-05-29T12:31:27;4.70;;;4.30;;
17947;SDS011;9099;47.958;11.366;2023-05-29T12:34:00;4.30;;;4.00;;
17947;SDS011;9099;47.958;11.366;2023-05-29T12:36:27;4.78;;;4.07;;
17947;SDS011;9099;47.958;11.366;2023-05-29T12:38:55;4.55;;;4.22;;
17947;SDS011;9099;47.958;11.366;2023-05-29T12:41:27;4.10;;;3.80;;
17947;SDS011;9099;47.958;11.366;2023-05-29T12:43:55;4.32;;;3.92;;
17947;SDS011;9099;47.958;11.366;2023-05-29T12:46:23;4.20;;;3.88;;
17947;SDS011;9099;47.958;11.366;2023-05-29T12:48:52;5.10;;;4.38;;
17947;SDS011;9099;47.958;11.366;2023-05-29T12:51:22;4.25;;;3.85;;
17947;SDS011;9099;47.958;11.366;2023-05-29T12:53:49;6.35;;;4.00;;
17947;SDS011;9099;47.958;11.366;2023-05-29T12:56:19;4.63;;;4.30;;
17947;SDS011;9099;47.958;11.366;2023-05-29T12:58:48;4.10;;;3.80;;
17947;SDS011;9099;47.958;11.366;2023-05-29T13:01:16;4.28;;;3.45;;
17947;SDS011;9099;47.958;11.366;2023-05-29T13:03:43;4.50;;;3.80;;
17947;SDS011;9099;47.958;11.366;2023-05-29T13:06:10;4.15;;;3.85;;
17947;SDS011;9099;47.958;11.366;2023-05-29T13:08:37;5.88;;;4.05;;
17947;SDS011;9099;47.958;11.366;2023-05-29T13:11:04;4.25;;;3.88;;
17947;SDS011;9099;47.958;11.366;2023-05-29T13:13:31;4.32;;;4.03;;
17947;SDS011;9099;47.958;11.366;2023-05-29T13:15:59;4.55;;;4.18;;
17947;SDS011;9099;47.958;11.366;2023-05-29T13:18:26;4.30;;;4.00;;
17947;SDS011;9099;47.958;11.366;2023-05-29T13:20:53;4.10;;;3.58;;
17947;SDS011;9099;47.958;11.366;2023-05-29T13:23:19;3.85;;;3.55;;
17947;SDS011;9099;47.958;11.366;2023-05-29T13:25:47;4.10;;;3.80;;
17947;SDS011;9099;47.958;11.366;2023-05-29T13:28:14;4.55;;;3.55;;
17947;SDS011;9099;47.958;11.366;2023-05-29T13:30:41;3.88;;;3.60;;
17947;SDS011;9099;47.958;11.366;2023-05-29T13:33:10;4.38;;;3.95;;
17947;SDS011;9099;47.958;11.366;2023-05-29T13:35:36;4.00;;;3.70;;
17947;SDS011;9099;47.958;11.366;2023-05-29T13:38:03;3.80;;;3.50;;
17947;SDS011;9099;47.958;11.366;2023-05-29T13:40:30;4.43;;;3.70;;
17947;SDS011;9099;47.958;11.366;2023-05-29T13:42:58;3.90;;;3.60;;
17947;SDS011;9099;47.958;11.366;2023-05-29T13:45:25;3.80;;;3.50;;
17947;SDS011;9099;47.958;11.366;2023-05-29T13:47:52;4.30;;;3.97;;
17947;SDS011;9099;47.958;11.366;2023-05-29T13:50:21;3.53;;;3.22;;
17947;SDS011;9099;47.958;11.366;2023-05-29T13:52:48;4.40;;;4.00;;
17947;SDS011;9099;47.958;11.366;2023-05-29T13:55:15;4.18;;;3.80;;
17947;SDS011;9099;47.958;11.366;2023-05-29T13:57:42;3.40;;;3.20;;
17947;SDS011;9099;47.958;11.366;2023-05-29T14:00:10;3.75;;;3.45;;
17947;SDS011;9099;47.958;11.366;2023-05-29T14:02:38;4.05;;;3.63;;
17947;SDS011;9099;47.958;11.366;2023-05-29T14:05:05;4.00;;;3.60;;
17947;SDS011;9099;47.958;11.366;2023-05-29T14:07:34;4.10;;;3.70;;
17947;SDS011;9099;47.958;11.366;2023-05-29T14:10:01;3.92;;;3.60;;
17947;SDS011;9099;47.958;11.366;2023-05-29T14:12:28;3.97;;;3.67;;
17947;SDS011;9099;47.958;11.366;2023-05-29T14:14:55;4.18;;;3.88;;
17947;SDS011;9099;47.958;11.366;2023-05-29T14:17:22;4.28;;;3.53;;
17947;SDS011;9099;47.958;11.366;2023-05-29T14:19:51;3.55;;;3.30;;
17947;SDS011;9099;47.958;11.366;2023-05-29T14:22:17;3.47;;;3.28;;
17947;SDS011;9099;47.958;11.366;2023-05-29T14:24:46;4.13;;;3.58;;
17947;SDS011;9099;47.958;11.366;2023-05-29T14:27:12;3.58;;;3.30;;
17947;SDS011;9099;47.958;11.366;2023-05-29T14:29:39;3.55;;;3.25;;
17947;SDS011;9099;47.958;11.366;2023-05-29T14:32:06;3.60;;;3.40;;
17947;SDS011;9099;47.958;11.366;2023-05-29T14:34:33;3.53;;;3.22;;
17947;SDS011;9099;47.958;11.366;2023-05-29T14:37:00;3.47;;;3.20;;
17947;SDS011;9099;47.958;11.366;2023-05-29T14:39:27;3.45;;;3.25;;
17947;SDS011;9099;47.958;11.366;2023-05-29T14:41:56;3.67;;;3.38;;
17947;SDS011;9099;47.958;11.366;2023-05-29T14:44:23;3.67;;;3.38;;
17947;SDS011;9099;47.958;11.366;2023-05-29T14:46:50;3.63;;;3.42;;
17947;SDS011;9099;47.958;11.366;2023-05-29T14:49:16;3.42;;;3.22;;
17947;SDS011;9099;47.958;11.366;2023-05-29T14:51:44;3.58;;;3.35;;
17947;SDS011;9099;47.958;11.366;2023-05-29T14:54:11;3.72;;;3.42;;
17947;SDS011;9099;47.958;11.366;2023-05-29T14:56:38;3.78;;;3.40;;